Time;durP1;ratioP1;P1;durP2;ratioP2;P2;SDS_P1;SDS_P2;PMS_P1;PMS_P2;Temp;Humidity;BMP_temperature;BMP_pressure;BME280_temperature;BME280_humidity;BME280_pressure;Samples;Min_cycle;Max_cycle;Signal;HPM_P1;HPM_P2
2022/09/26 00:01:55;;;;;;;;;;;;;;;;;;2214747;66;1094;-76
2022/09/26 00:04:29;;;;;;;;;;;;;;;;;;2214746;66;1349;-75
2022/09/26 00:07:02;;;;;;;;;;;;;;;;;;2214704;59;2194;-76
2022/09/26 00:09:35;;;;;;;;;;;;;;;;;;2214885;59;2320;-76
2022/09/26 00:12:08;;;;;;;;;;;;;;;;;;2212316;59;1187;-76
2022/09/26 00:14:44;;;;;;;;;;;;;;;;;;2214723;59;2211;-76
2022/09/26 00:17:17;;;;;;;;;;;;;;;;;;2214518;59;2357;-75
2022/09/26 00:19:50;;;;;;;;;;;;;;;;;;2214634;59;2378;-76
2022/09/26 00:22:24;;;;;;;;;;;;;;;;;;2214575;59;2624;-76
2022/09/26 00:24:57;;;;;;;;;;;;;;;;;;2214013;59;2062;-76
2022/09/26 00:27:30;;;;;;;;;;;;;;;;;;2215938;59;1171;-75
2022/09/26 00:30:06;;;;;;;;;;;;;;;;;;2215185;59;2264;-75
2022/09/26 00:32:39;;;;;;;;;;;;;;;;;;2214804;59;2082;-76
2022/09/26 00:35:12;;;;;;;;;;;;;;;;;;2214504;59;2371;-75
2022/09/26 00:37:45;;;;;;;;;;;;;;;;;;2214995;59;2228;-76
2022/09/26 00:40:19;;;;;;;;;;;;;;;;;;2214320;59;2311;-75
2022/09/26 00:42:52;;;;;;;;;;;;;;;;;;2211382;59;2228;-76
2022/09/26 00:45:32;;;;;;;;;;;;;;;;;;2214742;59;2192;-76
2022/09/26 00:48:07;;;;;;;;;;;;;;;;;;2216203;59;1618;-76
2022/09/26 00:50:43;;;;;;;;;;;;;;;;;;2211270;59;2281;-76
2022/09/26 00:53:18;;;;;;;;;;;;;;;;;;2215352;59;2137;-77
2022/09/26 00:55:54;;;;;;;;;;;;;;;;;;2214494;59;2260;-75
2022/09/26 00:58:29;;;;;;;;;;;;;;;;;;2214632;59;2256;-75
2022/09/26 01:01:06;;;;;;;;;;;;;;;;;;2213745;59;2379;-75
2022/09/26 01:03:40;;;;;;;;;;;;;;;;;;2214509;59;2180;-76
2022/09/26 01:06:14;;;;;;;;;;;;;;;;;;2215640;59;2402;-76
2022/09/26 01:08:51;;;;;;;;;;;;;;;;;;2214979;59;2131;-76
2022/09/26 01:11:24;;;;;;;;;;;;;;;;;;2215517;59;2266;-76
2022/09/26 01:13:58;;;;;;;;;;;;;;;;;;2215194;59;2185;-76
2022/09/26 01:16:34;;;;;;;;;;;;;;;;;;2214348;59;2353;-76
2022/09/26 01:19:14;;;;;;;;;;;;;;;;;;2214470;59;2205;-76
2022/09/26 01:22:05;;;;;;;;;;;;;;;;;;2214654;59;2171;-76
2022/09/26 01:24:49;;;;;;;;;;;;;;;;;;2214457;59;1192;-76
2022/09/26 01:27:37;;;;;;;;;;;;;;;;;;2214515;59;2851;-75
2022/09/26 01:30:18;;;;;;;;;;;;;;;;;;2212523;59;1992;-76
2022/09/26 01:33:14;;;;;;;;;;;;;;;;;;2214014;59;2105;-76
2022/09/26 01:36:03;;;;;;;;;;;;;;;;;;2214349;59;2165;-75
2022/09/26 01:38:43;;;;;;;;;;;;;;;;;;2214454;59;2270;-76
2022/09/26 01:41:32;;;;;;;;;;;;;;;;;;2214171;59;2311;-76
2022/09/26 01:44:14;;;;;;;;;;;;;;;;;;2214805;59;1195;-76
2022/09/26 01:46:53;;;;;;;;;;;;;;;;;;2215321;59;1322;-76
2022/09/26 01:49:27;;;;;;;;;;;;;;;;;;2216060;59;1075;-76
2022/09/26 01:52:04;;;;;;;;;;;;;;;;;;2214012;59;2340;-76
2022/09/26 01:54:39;;;;;;;;;;;;;;;;;;2214556;59;2167;-76
2022/09/26 01:57:15;;;;;;;;;;;;;;;;;;2214982;59;2249;-75
2022/09/26 01:59:50;;;;;;;;;;;;;;;;;;2214979;59;2903;-76
2022/09/26 02:02:28;;;;;;;;;;;;;;;;;;2214508;59;2086;-75
2022/09/26 02:05:03;;;;;;;;;;;;;;;;;;2213011;59;2161;-76
2022/09/26 02:07:38;;;;;;;;;;;;;;;;;;2214474;59;2324;-76
2022/09/26 02:10:16;;;;;;;;;;;;;;;;;;2214452;59;2139;-76
2022/09/26 02:12:53;;;;;;;;;;;;;;;;;;2214364;59;2209;-76
2022/09/26 02:15:28;;;;;;;;;;;;;;;;;;2214130;59;2199;-75
2022/09/26 02:18:09;;;;;;;;;;;;;;;;;;2213943;59;2181;-75
2022/09/26 02:20:45;;;;;;;;;;;;;;;;;;2213979;59;1945;-76
2022/09/26 02:23:18;;;;;;;;;;;;;;;;;;2211111;59;2998;-76
2022/09/26 02:25:51;;;;;;;;;;;;;;;;;;2214263;59;2268;-76
2022/09/26 02:28:24;;;;;;;;;;;;;;;;;;2214473;59;1119;-75
2022/09/26 02:30:59;;;;;;;;;;;;;;;;;;2213935;59;2264;-75
2022/09/26 02:33:36;;;;;;;;;;;;;;;;;;2214123;59;2429;-75
2022/09/26 02:36:10;;;;;;;;;;;;;;;;;;2213963;59;2404;-76
2022/09/26 02:38:43;;;;;;;;;;;;;;;;;;2214038;59;2259;-76
2022/09/26 02:41:19;;;;;;;;;;;;;;;;;;2211410;59;2237;-76
2022/09/26 02:44:03;;;;;;;;;;;;;;;;;;2214759;59;2328;-76
2022/09/26 02:46:45;;;;;;;;;;;;;;;;;;2214934;53;1759;-75
2022/09/26 02:53:01;;;;;;;;;;;;;;;;;;2207435;59;2445;-76
2022/09/26 02:55:41;;;;;;;;;;;;;;;;;;2208008;58;2749;-76
2022/09/26 03:09:00;;;;;;;;;;;;;;;;;;2371095;53;2914;-70
2022/09/26 03:11:37;;;;;;;;;;;;;;;;;;2216643;58;2455;-71
2022/09/26 03:14:11;;;;;;;;;;;;;;;;;;2217641;58;2288;-71
2022/09/26 03:16:46;;;;;;;;;;;;;;;;;;2217304;58;2258;-71
2022/09/26 03:19:25;;;;;;;;;;;;;;;;;;2218331;59;1246;-71
2022/09/26 03:21:59;;;;;;;;;;;;;;;;;;2218703;58;2211;-71
2022/09/26 03:24:32;;;;;;;;;;;;;;;;;;2218341;59;1276;-71
2022/09/26 03:27:08;;;;;;;;;;;;;;;;;;2218858;66;1209;-71
2022/09/26 03:29:42;;;;;;;;;;;;;;;;;;2217949;58;2207;-72
2022/09/26 03:32:15;;;;;;;;;;;;;;;;;;2219086;58;2057;-71
2022/09/26 03:34:49;;;;;;;;;;;;;;;;;;2215500;59;2282;-71
2022/09/26 03:37:22;;;;;;;;;;;;;;;;;;2217215;59;2627;-71
2022/09/26 03:39:55;;;;;;;;;;;;;;;;;;2217023;59;2277;-71
2022/09/26 03:42:32;;;;;;;;;;;;;;;;;;2216475;59;1077;-72
2022/09/26 03:45:07;;;;;;;;;;;;;;;;;;2219029;66;1239;-71
2022/09/26 03:47:40;;;;;;;;;;;;;;;;;;2220892;58;2220;-71
2022/09/26 03:50:14;;;;;;;;;;;;;;;;;;2220264;58;2267;-71
2022/09/26 03:52:47;;;;;;;;;;;;;;;;;;2220400;58;2348;-71
2022/09/26 03:55:20;;;;;;;;;;;;;;;;;;2220739;58;2276;-71
2022/09/26 03:57:56;;;;;;;;;;;;;;;;;;2220461;58;1196;-71
2022/09/26 04:00:29;;;;;;;;;;;;;;;;;;2219557;58;2154;-71
2022/09/26 04:03:04;;;;;;;;;;;;;;;;;;2219786;66;1222;-71
2022/09/26 04:05:37;;;;;;;;;;;;;;;;;;2219391;58;1695;-72
2022/09/26 04:08:11;;;;;;;;;;;;;;;;;;2219370;58;2287;-71
2022/09/26 04:10:44;;;;;;;;;;;;;;;;;;2219956;58;2530;-71
2022/09/26 04:13:20;;;;;;;;;;;;;;;;;;2219531;59;1228;-71
2022/09/26 04:15:56;;;;;;;;;;;;;;;;;;2219164;58;2350;-70
2022/09/26 04:18:29;;;;;;;;;;;;;;;;;;2218651;58;2171;-70
2022/09/26 04:21:04;;;;;;;;;;;;;;;;;;2219245;58;2080;-70
2022/09/26 04:23:38;;;;;;;;;;;;;;;;;;2214310;59;2320;-70
2022/09/26 04:26:12;;;;;;;;;;;;;;;;;;2218771;58;2235;-70
2022/09/26 04:28:50;;;;;;;;;;;;;;;;;;2218708;58;2242;-70
2022/09/26 04:31:25;;;;;;;;;;;;;;;;;;2219246;58;2351;-70
2022/09/26 04:33:59;;;;;;;;;;;;;;;;;;2218363;58;2354;-70
2022/09/26 04:36:32;;;;;;;;;;;;;;;;;;2218815;59;1143;-71
2022/09/26 04:39:05;;;;;;;;;;;;;;;;;;2219768;58;2360;-69
2022/09/26 04:41:39;;;;;;;;;;;;;;;;;;2219319;58;2336;-71
2022/09/26 04:44:15;;;;;;;;;;;;;;;;;;2219430;59;1133;-71
2022/09/26 04:46:48;;;;;;;;;;;;;;;;;;2218640;58;2438;-71
2022/09/26 04:49:22;;;;;;;;;;;;;;;;;;2219139;58;2270;-71
2022/09/26 04:51:55;;;;;;;;;;;;;;;;;;2219051;58;2307;-71
2022/09/26 04:54:29;;;;;;;;;;;;;;;;;;2219400;58;2326;-71
2022/09/26 04:57:03;;;;;;;;;;;;;;;;;;2219660;58;2317;-70
2022/09/26 04:59:38;;;;;;;;;;;;;;;;;;2218830;58;2159;-70
2022/09/26 05:02:12;;;;;;;;;;;;;;;;;;2218650;58;2193;-70
2022/09/26 05:04:47;;;;;;;;;;;;;;;;;;2218121;58;2410;-71
2022/09/26 05:07:20;;;;;;;;;;;;;;;;;;2218599;58;2290;-70
2022/09/26 05:09:53;;;;;;;;;;;;;;;;;;2218304;58;2623;-70
2022/09/26 05:12:26;;;;;;;;;;;;;;;;;;2219035;58;2447;-70
2022/09/26 05:15:04;;;;;;;;;;;;;;;;;;2218857;58;2252;-72
2022/09/26 05:17:37;;;;;;;;;;;;;;;;;;2218461;58;2226;-70
2022/09/26 05:20:11;;;;;;;;;;;;;;;;;;2218565;58;2253;-71
2022/09/26 05:22:44;;;;;;;;;;;;;;;;;;2220424;58;2113;-71
2022/09/26 05:28:06;;;;;;;;;;;;;;;;;;2218733;58;2268;-71
2022/09/26 05:30:42;;;;;;;;;;;;;;;;;;2218676;58;2196;-71
2022/09/26 05:33:15;;;;;;;;;;;;;;;;;;2219131;58;2276;-71
2022/09/26 05:35:52;;;;;;;;;;;;;;;;;;2218356;58;1821;-70
2022/09/26 05:38:25;;;;;;;;;;;;;;;;;;2218577;58;2267;-71
2022/09/26 05:40:55;;;;;;;;;;;;;;;;;;2218789;58;2287;-70
2022/09/26 05:43:30;;;;;;;;;;;;;;;;;;2219185;58;2247;-70
2022/09/26 05:46:07;;;;;;;;;;;;;;;;;;2219197;58;1627;-71
2022/09/26 05:48:40;;;;;;;;;;;;;;;;;;2219512;58;1138;-71
2022/09/26 05:51:14;;;;;;;;;;;;;;;;;;2219987;58;2348;-71
2022/09/26 05:53:48;;;;;;;;;;;;;;;;;;2219771;58;2097;-71
2022/09/26 05:56:22;;;;;;;;;;;;;;;;;;2219533;58;1200;-70
2022/09/26 05:58:55;;;;;;;;;;;;;;;;;;2220834;58;2428;-70
2022/09/26 06:01:31;;;;;;;;;;;;;;;;;;2220899;58;2329;-71
2022/09/26 06:04:05;;;;;;;;;;;;;;;;;;2219961;66;1598;-71
2022/09/26 06:06:38;;;;;;;;;;;;;;;;;;2224725;58;1781;-71
2022/09/26 06:09:11;;;;;;;;;;;;;;;;;;2220311;58;1154;-71
2022/09/26 06:11:48;;;;;;;;;;;;;;;;;;2219119;66;1730;-71
2022/09/26 06:14:25;;;;;;;;;;;;;;;;;;2219636;66;1164;-70
2022/09/26 06:17:01;;;;;;;;;;;;;;;;;;2218967;66;1093;-71
2022/09/26 06:19:34;;;;;;;;;;;;;;;;;;2219831;66;1284;-70
2022/09/26 06:22:08;;;;;;;;;;;;;;;;;;2223277;66;1904;-70
2022/09/26 06:24:41;;;;;;;;;;;;;;;;;;2222091;66;1121;-71
2022/09/26 06:27:14;;;;;;;;;;;;;;;;;;2222093;66;1234;-72
2022/09/26 06:29:47;;;;;;;;;;;;;;;;;;2225873;66;1250;-70
2022/09/26 06:32:23;;;;;;;;;;;;;;;;;;2223160;59;1301;-70
2022/09/26 06:34:56;;;;;;;;;;;;;;;;;;2218121;66;1121;-69
2022/09/26 06:37:29;;;;;;;;;;;;;;;;;;2223548;59;1149;-72
2022/09/26 06:40:03;;;;;;;;;;;;;;;;;;2223067;59;1742;-71
2022/09/26 06:42:37;;;;;;;;;;;;;;;;;;2225410;59;1907;-70
2022/09/26 06:45:11;;;;;;;;;;;;;;;;;;2225347;66;1251;-71
2022/09/26 06:47:47;;;;;;;;;;;;;;;;;;2225093;59;1556;-70
2022/09/26 06:50:21;;;;;;;;;;;;;;;;;;2223132;66;1205;-70
2022/09/26 06:52:54;;;;;;;;;;;;;;;;;;2223162;66;1127;-72
2022/09/26 06:55:27;;;;;;;;;;;;;;;;;;2223164;59;1255;-73
2022/09/26 06:58:00;;;;;;;;;;;;;;;;;;2219422;66;1191;-72
2022/09/26 07:00:34;;;;;;;;;;;;;;;;;;2220655;66;1244;-71
2022/09/26 07:03:10;;;;;;;;;;;;;;;;;;2224279;66;1941;-70
2022/09/26 07:05:44;;;;;;;;;;;;;;;;;;2224366;66;1167;-70
2022/09/26 07:08:17;;;;;;;;;;;;;;;;;;2223421;59;1934;-71
2022/09/26 07:10:51;;;;;;;;;;;;;;;;;;2223498;59;1182;-71
2022/09/26 07:13:24;;;;;;;;;;;;;;;;;;2222072;58;1855;-71
2022/09/26 07:15:58;;;;;;;;;;;;;;;;;;2222699;59;1129;-70
2022/09/26 07:18:35;;;;;;;;;;;;;;;;;;2221636;66;1262;-70
2022/09/26 07:21:08;;;;;;;;;;;;;;;;;;2220693;66;1924;-71
2022/09/26 07:23:42;;;;;;;;;;;;;;;;;;2216724;66;1870;-70
2022/09/26 07:26:15;;;;;;;;;;;;;;;;;;2219702;58;2427;-71
2022/09/26 07:28:48;;;;;;;;;;;;;;;;;;2221022;58;2507;-71
2022/09/26 07:31:22;;;;;;;;;;;;;;;;;;2219731;59;1366;-71
2022/09/26 07:33:58;;;;;;;;;;;;;;;;;;2219654;66;1123;-71
2022/09/26 07:36:32;;;;;;;;;;;;;;;;;;2220124;59;1290;-71
2022/09/26 07:39:05;;;;;;;;;;;;;;;;;;2218693;58;1686;-71
2022/09/26 07:41:38;;;;;;;;;;;;;;;;;;2220150;58;2228;-71
2022/09/26 07:44:11;;;;;;;;;;;;;;;;;;2219940;59;1209;-71
2022/09/26 07:52:25;;;;;;;;;;;;;;;;;;2220256;66;1244;-71
2022/09/26 07:54:58;;;;;;;;;;;;;;;;;;2218990;59;1262;-71
2022/09/26 07:57:34;;;;;;;;;;;;;;;;;;2213932;59;2055;-71
2022/09/26 08:00:11;;;;;;;;;;;;;;;;;;2217978;58;1975;-71
2022/09/26 08:02:45;;;;;;;;;;;;;;;;;;2218061;58;1936;-72
2022/09/26 08:05:23;;;;;;;;;;;;;;;;;;2219083;66;1235;-71
2022/09/26 08:07:56;;;;;;;;;;;;;;;;;;2219099;58;1824;-71
2022/09/26 08:10:32;;;;;;;;;;;;;;;;;;2218993;58;1767;-70
2022/09/26 08:13:05;;;;;;;;;;;;;;;;;;2218476;58;2022;-72
2022/09/26 08:15:38;;;;;;;;;;;;;;;;;;2219794;58;1193;-71
2022/09/26 08:18:11;;;;;;;;;;;;;;;;;;2219910;66;1073;-71
2022/09/26 08:20:48;;;;;;;;;;;;;;;;;;2219307;59;1874;-71
2022/09/26 08:23:21;;;;;;;;;;;;;;;;;;2219799;66;1971;-71
2022/09/26 08:25:54;;;;;;;;;;;;;;;;;;2219103;58;1714;-71
2022/09/26 08:28:28;;;;;;;;;;;;;;;;;;2218926;59;1761;-72
2022/09/26 08:31:04;;;;;;;;;;;;;;;;;;2219612;66;1106;-71
2022/09/26 08:33:39;;;;;;;;;;;;;;;;;;2220429;59;1333;-71
2022/09/26 08:36:16;;;;;;;;;;;;;;;;;;2222731;59;1151;-70
2022/09/26 08:38:50;;;;;;;;;;;;;;;;;;2219720;58;1874;-71
2022/09/26 08:41:35;;;;;;;;;;;;;;;;;;2219134;58;1937;-71
2022/09/26 08:44:15;;;;;;;;;;;;;;;;;;2221444;59;1253;-72
2022/09/26 08:46:56;;;;;;;;;;;;;;;;;;2226008;58;1933;-71
2022/09/26 08:49:43;;;;;;;;;;;;;;;;;;2219384;59;1792;-71
2022/09/26 08:52:25;;;;;;;;;;;;;;;;;;2219346;66;1107;-71
2022/09/26 08:54:59;;;;;;;;;;;;;;;;;;2219017;66;1144;-71
2022/09/26 08:57:36;;;;;;;;;;;;;;;;;;2219817;58;2195;-71
2022/09/26 09:00:17;;;;;;;;;;;;;;;;;;2218915;58;2119;-71
2022/09/26 09:02:58;;;;;;;;;;;;;;;;;;2219247;58;1944;-72
2022/09/26 09:05:32;;;;;;;;;;;;;;;;;;2219434;58;2350;-71
2022/09/26 09:08:13;;;;;;;;;;;;;;;;;;2218631;58;1837;-71
2022/09/26 09:25:30;;;;;;;;;;;;;;;;;;2214521;59;2199;-76
2022/09/26 09:28:36;;;;;;;;;;;;;;;;;;2197503;59;1132;-76
2022/09/26 09:31:17;;;;;;;;;;;;;;;;;;2189808;59;1530;-75
2022/09/26 09:33:52;;;;;;;;;;;;;;;;;;2205376;59;1585;-75
2022/09/26 09:36:35;;;;;;;;;;;;;;;;;;2206593;59;2221;-75
2022/09/26 09:39:18;;;;;;;;;;;;;;;;;;2206048;59;1521;-76
2022/09/26 09:42:02;;;;;;;;;;;;;;;;;;2206143;59;2634;-74
2022/09/26 09:44:46;;;;;;;;;;;;;;;;;;2209169;59;1959;-76
2022/09/26 09:47:20;;;;;;;;;;;;;;;;;;2211796;59;2195;-75
2022/09/26 09:50:01;;;;;;;;;;;;;;;;;;2211974;59;1246;-76
2022/09/26 09:52:58;;;;;;;;;;;;;;;;;;2209920;59;1278;-76
2022/09/26 09:55:37;;;;;;;;;;;;;;;;;;2210210;59;1557;-77
2022/09/26 09:58:34;;;;;;;;;;;;;;;;;;2210345;67;1152;-77
2022/09/26 10:01:27;;;;;;;;;;;;;;;;;;2203660;67;1445;-77
2022/09/26 10:04:29;;;;;;;;;;;;;;;;;;2209806;59;1923;-76
2022/09/26 10:07:04;;;;;;;;;;;;;;;;;;2210626;59;1796;-76
2022/09/26 10:09:40;;;;;;;;;;;;;;;;;;2211819;67;1263;-76
2022/09/26 10:12:18;;;;;;;;;;;;;;;;;;2210809;59;2109;-76
2022/09/26 10:14:53;;;;;;;;;;;;;;;;;;2209152;59;1740;-74
2022/09/26 10:17:37;;;;;;;;;;;;;;;;;;2211586;59;1729;-76
2022/09/26 10:20:34;;;;;;;;;;;;;;;;;;2211511;59;1440;-75
2022/09/26 10:23:12;;;;;;;;;;;;;;;;;;2209059;59;1988;-74
2022/09/26 10:26:01;;;;;;;;;;;;;;;;;;2205876;59;2053;-76
2022/09/26 10:28:36;;;;;;;;;;;;;;;;;;2211144;59;1116;-76
2022/09/26 10:31:13;;;;;;;;;;;;;;;;;;2209257;59;1346;-76
2022/09/26 10:33:55;;;;;;;;;;;;;;;;;;2209179;59;1667;-76
2022/09/26 10:36:33;;;;;;;;;;;;;;;;;;2211503;59;1084;-76
2022/09/26 10:42:15;;;;;;;;;;;;;;;;;;2208834;59;2613;-76
2022/09/26 10:44:49;;;;;;;;;;;;;;;;;;2205248;59;2317;-77
2022/09/26 10:47:25;;;;;;;;;;;;;;;;;;2207233;59;1243;-76
2022/09/26 10:50:04;;;;;;;;;;;;;;;;;;2210726;59;1487;-76
2022/09/26 10:52:40;;;;;;;;;;;;;;;;;;2209396;59;1121;-76
2022/09/26 10:55:16;;;;;;;;;;;;;;;;;;2209052;67;1212;-76
2022/09/26 10:57:53;;;;;;;;;;;;;;;;;;2210094;67;1280;-76
2022/09/26 11:00:38;;;;;;;;;;;;;;;;;;2209676;59;1779;-76
2022/09/26 11:03:12;;;;;;;;;;;;;;;;;;2209781;67;1929;-76
2022/09/26 11:05:59;;;;;;;;;;;;;;;;;;2209616;59;1093;-76
2022/09/26 11:08:34;;;;;;;;;;;;;;;;;;2210520;59;1775;-75
2022/09/26 11:11:15;;;;;;;;;;;;;;;;;;2208925;59;1583;-76
2022/09/26 11:14:02;;;;;;;;;;;;;;;;;;2205242;67;1473;-77
2022/09/26 11:16:40;;;;;;;;;;;;;;;;;;2209345;67;1105;-76
2022/09/26 11:19:18;;;;;;;;;;;;;;;;;;2209828;59;1084;-76
2022/09/26 11:21:57;;;;;;;;;;;;;;;;;;2209827;59;1674;-76
2022/09/26 11:24:35;;;;;;;;;;;;;;;;;;2209450;67;1995;-77
2022/09/26 11:27:18;;;;;;;;;;;;;;;;;;2206518;59;1698;-76
2022/09/26 11:29:54;;;;;;;;;;;;;;;;;;2210839;59;1290;-77
2022/09/26 11:32:31;;;;;;;;;;;;;;;;;;2209332;59;1710;-77
2022/09/26 11:35:14;;;;;;;;;;;;;;;;;;2207021;67;1311;-77
2022/09/26 11:38:02;;;;;;;;;;;;;;;;;;2210454;59;1263;-76
2022/09/26 11:40:40;;;;;;;;;;;;;;;;;;2211263;67;1303;-77
2022/09/26 11:43:27;;;;;;;;;;;;;;;;;;2209342;59;2822;-77
2022/09/26 11:46:06;;;;;;;;;;;;;;;;;;2209464;59;2695;-76
2022/09/26 11:48:48;;;;;;;;;;;;;;;;;;2209347;59;1242;-76
2022/09/26 11:51:33;;;;;;;;;;;;;;;;;;2209300;67;1205;-76
2022/09/26 11:54:20;;;;;;;;;;;;;;;;;;2211361;59;1124;-77
2022/09/26 11:57:11;;;;;;;;;;;;;;;;;;2211379;59;2113;-76
2022/09/26 11:59:56;;;;;;;;;;;;;;;;;;2212274;59;1142;-74
2022/09/26 12:02:45;;;;;;;;;;;;;;;;;;2211673;59;1925;-76
2022/09/26 12:05:33;;;;;;;;;;;;;;;;;;2211712;59;1404;-76
2022/09/26 12:08:15;;;;;;;;;;;;;;;;;;2210906;59;1447;-76
2022/09/26 12:10:56;;;;;;;;;;;;;;;;;;2212043;59;1228;-76
2022/09/26 12:13:36;;;;;;;;;;;;;;;;;;2212107;59;2147;-76
2022/09/26 12:16:14;;;;;;;;;;;;;;;;;;2212659;59;2311;-76
2022/09/26 12:18:55;;;;;;;;;;;;;;;;;;2212544;59;2303;-77
2022/09/26 12:21:33;;;;;;;;;;;;;;;;;;2207377;59;2296;-76
2022/09/26 12:24:09;;;;;;;;;;;;;;;;;;2212161;59;3056;-76
2022/09/26 12:26:52;;;;;;;;;;;;;;;;;;2208146;59;2207;-76
2022/09/26 12:29:36;;;;;;;;;;;;;;;;;;2211342;59;2379;-76
2022/09/26 12:32:21;;;;;;;;;;;;;;;;;;2211120;59;1163;-76
2022/09/26 12:35:05;;;;;;;;;;;;;;;;;;2211398;59;2201;-76
2022/09/26 12:37:48;;;;;;;;;;;;;;;;;;2212878;59;3102;-76
2022/09/26 12:40:32;;;;;;;;;;;;;;;;;;2207773;59;1778;-76
2022/09/26 12:43:19;;;;;;;;;;;;;;;;;;2211200;59;1976;-76
2022/09/26 12:46:05;;;;;;;;;;;;;;;;;;2211020;59;1914;-75
2022/09/26 12:52:08;;;;;;;;;;;;;;;;;;2289987;59;2155;-76
2022/09/26 12:55:02;;;;;;;;;;;;;;;;;;2216972;59;1119;-76
2022/09/26 12:57:41;;;;;;;;;;;;;;;;;;2217195;66;1105;-76
2022/09/26 13:00:20;;;;;;;;;;;;;;;;;;2213550;59;1269;-74
2022/09/26 13:03:02;;;;;;;;;;;;;;;;;;2216591;58;2106;-76
2022/09/26 13:05:53;;;;;;;;;;;;;;;;;;2217375;53;3818;-77
2022/09/26 13:08:32;;;;;;;;;;;;;;;;;;2219857;58;2204;-75
2022/09/26 13:11:11;;;;;;;;;;;;;;;;;;2223699;58;2101;-76
2022/09/26 13:13:54;;;;;;;;;;;;;;;;;;2223717;58;1404;-76
2022/09/26 13:16:38;;;;;;;;;;;;;;;;;;2221075;58;2317;-75
2022/09/26 13:19:19;;;;;;;;;;;;;;;;;;2220403;58;2287;-75
2022/09/26 13:21:58;;;;;;;;;;;;;;;;;;2219626;58;2154;-82
2022/09/26 13:24:36;;;;;;;;;;;;;;;;;;2220623;58;2164;-75
2022/09/26 13:27:14;;;;;;;;;;;;;;;;;;2221143;58;2140;-76
2022/09/26 13:29:59;;;;;;;;;;;;;;;;;;2220220;58;2180;-75
2022/09/26 13:32:49;;;;;;;;;;;;;;;;;;2221276;58;1339;-76
2022/09/26 13:35:23;;;;;;;;;;;;;;;;;;2220244;58;2130;-76
2022/09/26 13:38:08;;;;;;;;;;;;;;;;;;2218812;58;1788;-76
2022/09/26 13:40:45;;;;;;;;;;;;;;;;;;2219595;58;1858;-76
2022/09/26 13:43:24;;;;;;;;;;;;;;;;;;2220244;58;2043;-75
2022/09/26 13:46:02;;;;;;;;;;;;;;;;;;2220830;58;1738;-76
2022/09/26 13:48:48;;;;;;;;;;;;;;;;;;2220916;58;1853;-76
2022/09/26 13:51:25;;;;;;;;;;;;;;;;;;2219924;58;1545;-76
2022/09/26 13:54:03;;;;;;;;;;;;;;;;;;2220267;58;1687;-74
2022/09/26 13:56:44;;;;;;;;;;;;;;;;;;2218566;58;1793;-74
2022/09/26 13:59:26;;;;;;;;;;;;;;;;;;2219708;58;1866;-75
2022/09/26 14:02:21;;;;;;;;;;;;;;;;;;2220220;58;2035;-76
2022/09/26 14:05:17;;;;;;;;;;;;;;;;;;2220448;58;1927;-76
2022/09/26 14:10:42;;;;;;;;;;;;;;;;;;2219479;58;1795;-75
2022/09/26 14:13:20;;;;;;;;;;;;;;;;;;2219616;58;1718;-75
2022/09/26 14:15:58;;;;;;;;;;;;;;;;;;2218939;58;1811;-72
2022/09/26 14:18:49;;;;;;;;;;;;;;;;;;2219173;58;1788;-74
2022/09/26 14:21:35;;;;;;;;;;;;;;;;;;2217021;58;2133;-75
2022/09/26 14:24:29;;;;;;;;;;;;;;;;;;2218856;58;1931;-74
2022/09/26 14:27:07;;;;;;;;;;;;;;;;;;2219489;58;1843;-75
2022/09/26 14:29:48;;;;;;;;;;;;;;;;;;2220071;58;1215;-73
2022/09/26 14:32:24;;;;;;;;;;;;;;;;;;2217491;58;2361;-74
2022/09/26 14:34:58;;;;;;;;;;;;;;;;;;2214867;58;1218;-74
2022/09/26 14:37:39;;;;;;;;;;;;;;;;;;2218232;58;1735;-72
2022/09/26 14:40:23;;;;;;;;;;;;;;;;;;2218890;58;2505;-74
2022/09/26 14:42:58;;;;;;;;;;;;;;;;;;2217048;58;2981;-74
2022/09/26 14:45:45;;;;;;;;;;;;;;;;;;2219062;58;1975;-74
2022/09/26 14:48:28;;;;;;;;;;;;;;;;;;2218542;58;1156;-75
2022/09/26 14:51:04;;;;;;;;;;;;;;;;;;2219992;66;1231;-74
2022/09/26 14:53:42;;;;;;;;;;;;;;;;;;2219385;66;1191;-74
2022/09/26 14:56:17;;;;;;;;;;;;;;;;;;2217698;66;1251;-74
2022/09/26 14:58:52;;;;;;;;;;;;;;;;;;2219954;66;1251;-75
2022/09/26 15:01:27;;;;;;;;;;;;;;;;;;2216099;66;1406;-74
2022/09/26 15:04:02;;;;;;;;;;;;;;;;;;2219550;58;1924;-75
2022/09/26 15:06:40;;;;;;;;;;;;;;;;;;2219572;58;1269;-74
2022/09/26 15:09:20;;;;;;;;;;;;;;;;;;2219444;58;1702;-75
2022/09/26 15:11:56;;;;;;;;;;;;;;;;;;2218974;58;2635;-75
2022/09/26 15:14:35;;;;;;;;;;;;;;;;;;2219293;58;2300;-74
2022/09/26 15:17:09;;;;;;;;;;;;;;;;;;2218803;58;1812;-74
2022/09/26 15:19:47;;;;;;;;;;;;;;;;;;2220150;58;1339;-74
2022/09/26 15:22:22;;;;;;;;;;;;;;;;;;2219989;58;1289;-75
2022/09/26 15:25:08;;;;;;;;;;;;;;;;;;2219185;66;1937;-75
2022/09/26 15:27:44;;;;;;;;;;;;;;;;;;2218931;58;2411;-76
2022/09/26 15:30:18;;;;;;;;;;;;;;;;;;2220652;66;1238;-76
2022/09/26 15:32:52;;;;;;;;;;;;;;;;;;2219103;66;1230;-75
2022/09/26 15:35:25;;;;;;;;;;;;;;;;;;2217326;58;1988;-76
2022/09/26 15:38:00;;;;;;;;;;;;;;;;;;2220169;58;1361;-75
2022/09/26 15:40:36;;;;;;;;;;;;;;;;;;2219978;66;1119;-75
2022/09/26 15:43:10;;;;;;;;;;;;;;;;;;2219106;58;2833;-75
2022/09/26 15:45:56;;;;;;;;;;;;;;;;;;2219891;58;1999;-75
2022/09/26 15:48:31;;;;;;;;;;;;;;;;;;2221052;66;1197;-75
2022/09/26 15:51:07;;;;;;;;;;;;;;;;;;2220856;58;1733;-76
2022/09/26 15:53:42;;;;;;;;;;;;;;;;;;2220922;58;1152;-77
2022/09/26 15:56:20;;;;;;;;;;;;;;;;;;2218796;58;1520;-75
2022/09/26 15:58:56;;;;;;;;;;;;;;;;;;2219611;59;1199;-74
2022/09/26 16:01:31;;;;;;;;;;;;;;;;;;2220742;58;1270;-74
2022/09/26 16:04:05;;;;;;;;;;;;;;;;;;2220285;58;1933;-74
2022/09/26 16:06:40;;;;;;;;;;;;;;;;;;2220373;58;1251;-74
2022/09/26 16:09:20;;;;;;;;;;;;;;;;;;2219922;58;1666;-75
2022/09/26 16:11:57;;;;;;;;;;;;;;;;;;2220693;66;1213;-75
2022/09/26 16:14:33;;;;;;;;;;;;;;;;;;2221058;66;1073;-75
2022/09/26 16:17:13;;;;;;;;;;;;;;;;;;2220666;66;1231;-75
2022/09/26 16:19:47;;;;;;;;;;;;;;;;;;2219884;66;1259;-75
2022/09/26 16:22:35;;;;;;;;;;;;;;;;;;2220781;66;1196;-75
2022/09/26 16:25:30;;;;;;;;;;;;;;;;;;2219524;58;1980;-75
2022/09/26 16:28:19;;;;;;;;;;;;;;;;;;2220203;58;1300;-75
2022/09/26 16:31:02;;;;;;;;;;;;;;;;;;2218600;66;1140;-75
2022/09/26 16:33:36;;;;;;;;;;;;;;;;;;2221060;58;1226;-74
2022/09/26 16:36:17;;;;;;;;;;;;;;;;;;2220479;58;1322;-75
2022/09/26 16:38:54;;;;;;;;;;;;;;;;;;2220500;58;1211;-75
2022/09/26 16:41:30;;;;;;;;;;;;;;;;;;2220097;58;1088;-75
2022/09/26 16:44:05;;;;;;;;;;;;;;;;;;2218886;58;2697;-74
2022/09/26 16:46:42;;;;;;;;;;;;;;;;;;2216254;58;1885;-75
2022/09/26 16:49:30;;;;;;;;;;;;;;;;;;2219461;58;1773;-75
2022/09/26 16:52:25;;;;;;;;;;;;;;;;;;2218086;58;1771;-75
2022/09/26 16:54:59;;;;;;;;;;;;;;;;;;2219324;58;1599;-74
2022/09/26 16:57:34;;;;;;;;;;;;;;;;;;2218926;66;1257;-74
2022/09/26 17:03:01;;;;;;;;;;;;;;;;;;2220667;58;1487;-75
2022/09/26 17:05:35;;;;;;;;;;;;;;;;;;2219784;58;1936;-74
2022/09/26 17:08:10;;;;;;;;;;;;;;;;;;2219530;58;1275;-74
2022/09/26 17:10:43;;;;;;;;;;;;;;;;;;2220184;58;1267;-74
2022/09/26 17:13:20;;;;;;;;;;;;;;;;;;2219991;66;1266;-75
2022/09/26 17:15:54;;;;;;;;;;;;;;;;;;2220433;59;1211;-74
2022/09/26 17:18:31;;;;;;;;;;;;;;;;;;2220602;58;1042;-75
2022/09/26 17:21:05;;;;;;;;;;;;;;;;;;2219622;66;1338;-75
2022/09/26 17:23:38;;;;;;;;;;;;;;;;;;2219439;58;1100;-75
2022/09/26 17:26:17;;;;;;;;;;;;;;;;;;2219640;58;1987;-75
2022/09/26 17:28:51;;;;;;;;;;;;;;;;;;2220230;58;1309;-75
2022/09/26 17:31:25;;;;;;;;;;;;;;;;;;2219536;58;1781;-74
2022/09/26 17:34:02;;;;;;;;;;;;;;;;;;2220771;58;1247;-74
2022/09/26 17:36:35;;;;;;;;;;;;;;;;;;2220582;58;1325;-75
2022/09/26 17:39:12;;;;;;;;;;;;;;;;;;2221469;58;1650;-76
2022/09/26 17:41:45;;;;;;;;;;;;;;;;;;2216012;58;1957;-75
2022/09/26 17:44:18;;;;;;;;;;;;;;;;;;2217689;58;2260;-76
2022/09/26 17:46:53;;;;;;;;;;;;;;;;;;2219148;58;2519;-75
2022/09/26 17:49:31;;;;;;;;;;;;;;;;;;2218722;58;1104;-75
2022/09/26 17:52:05;;;;;;;;;;;;;;;;;;2218468;58;2006;-74
2022/09/26 17:54:41;;;;;;;;;;;;;;;;;;2218448;58;1324;-75
2022/09/26 17:57:15;;;;;;;;;;;;;;;;;;2219532;58;1584;-75
2022/09/26 17:59:48;;;;;;;;;;;;;;;;;;2219349;58;1434;-75
2022/09/26 18:02:23;;;;;;;;;;;;;;;;;;2219167;66;1198;-75
2022/09/26 18:05:02;;;;;;;;;;;;;;;;;;2218473;58;1932;-75
2022/09/26 18:07:38;;;;;;;;;;;;;;;;;;2218638;58;1059;-75
2022/09/26 18:10:18;;;;;;;;;;;;;;;;;;2218832;58;1706;-75
2022/09/26 18:12:54;;;;;;;;;;;;;;;;;;2220218;66;1165;-75
2022/09/26 18:15:29;;;;;;;;;;;;;;;;;;2219852;66;1170;-75
2022/09/26 18:18:02;;;;;;;;;;;;;;;;;;2218688;58;1790;-75
2022/09/26 18:20:38;;;;;;;;;;;;;;;;;;2218780;58;1703;-75
2022/09/26 18:23:14;;;;;;;;;;;;;;;;;;2217744;66;1103;-75
2022/09/26 18:25:49;;;;;;;;;;;;;;;;;;2217687;58;1982;-75
2022/09/26 18:28:24;;;;;;;;;;;;;;;;;;2217553;59;1243;-75
2022/09/26 18:30:59;;;;;;;;;;;;;;;;;;2213829;58;1712;-76
2022/09/26 18:33:33;;;;;;;;;;;;;;;;;;2217917;58;1960;-75
2022/09/26 18:36:11;;;;;;;;;;;;;;;;;;2219178;58;1289;-75
2022/09/26 18:38:44;;;;;;;;;;;;;;;;;;2218465;66;1165;-76
2022/09/26 18:41:18;;;;;;;;;;;;;;;;;;2218467;58;1654;-76
2022/09/26 18:43:52;;;;;;;;;;;;;;;;;;2218983;58;1703;-75
2022/09/26 18:46:25;;;;;;;;;;;;;;;;;;2219223;58;1984;-76
2022/09/26 18:49:04;;;;;;;;;;;;;;;;;;2218752;66;1276;-76
2022/09/26 18:52:09;;;;;;;;;;;;;;;;;;2218279;58;1683;-75
2022/09/26 19:00:30;;;;;;;;;;;;;;;;;;2217905;66;1146;-75
2022/09/26 19:03:03;;;;;;;;;;;;;;;;;;2214904;66;2118;-75
2022/09/26 19:16:19;;;;;;;;;;;;;;;;;;2357094;59;1876;-76
2022/09/26 19:18:53;;;;;;;;;;;;;;;;;;2206883;60;1094;-76
2022/09/26 19:21:30;;;;;;;;;;;;;;;;;;2206672;67;1097;-76